createdAt,value
2016-11-26T00:00:03.286Z,32.1
2016-11-26T00:01:00.967Z,32.1
2016-11-26T00:02:03.470Z,32.1
2016-11-26T00:03:03.591Z,32.1
2016-11-26T00:04:03.611Z,32.1
2016-11-26T00:05:01.226Z,32.1
2016-11-26T00:06:03.574Z,32.1
2016-11-26T00:07:03.618Z,32.1
2016-11-26T00:08:01.246Z,32.1
2016-11-26T00:09:01.343Z,32.1
2016-11-26T00:10:01.347Z,32.1
2016-11-26T00:11:01.450Z,32.1
2016-11-26T00:12:03.890Z,32.1
2016-11-26T00:13:01.495Z,32.1
2016-11-26T00:14:03.933Z,32.1
2016-11-26T00:15:04.023Z,32.1
2016-11-26T00:16:03.977Z,32.1
2016-11-26T00:17:04.090Z,32.1
2016-11-26T00:18:04.077Z,32.1
2016-11-26T00:19:01.837Z,32.1
2016-11-26T00:20:01.765Z,32.1
2016-11-26T00:21:04.209Z,32.1
2016-11-26T00:22:01.908Z,32.1
2016-11-26T00:23:04.343Z,32.1
2016-11-26T00:24:04.435Z,32.1
2016-11-26T00:25:04.446Z,32.1
2016-11-26T00:26:04.521Z,32
2016-11-26T00:27:02.154Z,32
2016-11-26T00:28:02.239Z,32
2016-11-26T00:29:04.689Z,32.1
2016-11-26T00:30:04.769Z,32
2016-11-26T00:31:04.820Z,32.1
2016-11-26T00:32:04.978Z,32
2016-11-26T00:33:05.037Z,32
2016-11-26T00:34:02.686Z,32.1
2016-11-26T00:35:02.610Z,32
2016-11-26T00:36:05.170Z,32.1
2016-11-26T00:37:02.872Z,32
2016-11-26T00:38:02.749Z,32
2016-11-26T00:39:05.183Z,32.1
2016-11-26T00:40:02.848Z,32
2016-11-26T00:41:05.401Z,32
2016-11-26T00:42:05.425Z,32
2016-11-26T00:43:02.989Z,32
2016-11-26T00:44:05.497Z,32
2016-11-26T00:45:05.682Z,32
2016-11-26T00:46:03.210Z,32
2016-11-26T00:47:03.419Z,32
2016-11-26T00:48:03.419Z,32
2016-11-26T00:49:05.759Z,32
2016-11-26T00:50:03.534Z,32
2016-11-26T00:51:05.990Z,32
2016-11-26T00:52:05.958Z,32
2016-11-26T00:53:06.013Z,32
2016-11-26T00:54:06.024Z,32
2016-11-26T00:55:06.005Z,32
2016-11-26T00:56:06.070Z,32
2016-11-26T00:57:06.222Z,32
2016-11-26T00:58:06.157Z,32
2016-11-26T00:59:03.893Z,32
2016-11-26T01:00:06.257Z,32
2016-11-26T01:01:06.255Z,32
2016-11-26T01:02:03.943Z,32
2016-11-26T01:03:06.343Z,32
2016-11-26T01:04:06.388Z,32
2016-11-26T01:05:03.992Z,32
2016-11-26T01:06:06.414Z,32
2016-11-26T01:07:06.438Z,32
2016-11-26T01:08:06.467Z,32
2016-11-26T01:09:06.672Z,32
2016-11-26T01:10:06.660Z,32
2016-11-26T01:11:04.273Z,32
2016-11-26T01:12:06.753Z,32
2016-11-26T01:13:04.333Z,32
2016-11-26T01:14:04.459Z,32
2016-11-26T01:15:04.521Z,32
2016-11-26T01:16:06.982Z,32
2016-11-26T01:17:04.645Z,32
2016-11-26T01:18:04.777Z,32
2016-11-26T01:19:04.799Z,32
2016-11-26T01:20:04.863Z,32
2016-11-26T01:21:07.298Z,32
2016-11-26T01:22:07.273Z,32
2016-11-26T01:23:07.433Z,32
2016-11-26T01:24:04.973Z,32
2016-11-26T01:25:05.135Z,32
2016-11-26T01:26:07.487Z,32
2016-11-26T01:27:05.216Z,32
2016-11-26T01:28:05.322Z,32
2016-11-26T01:29:07.770Z,32
2016-11-26T01:30:05.414Z,32
2016-11-26T01:31:05.430Z,32
2016-11-26T01:32:05.390Z,32
2016-11-26T01:33:05.428Z,32
2016-11-26T01:34:05.573Z,32
2016-11-26T01:35:05.515Z,32
2016-11-26T01:36:05.554Z,32
2016-11-26T01:37:05.657Z,31.9
2016-11-26T01:38:05.671Z,31.9
2016-11-26T01:39:08.033Z,31.9
2016-11-26T01:40:05.724Z,31.9
2016-11-26T01:41:05.642Z,31.9
2016-11-26T01:42:05.730Z,31.9
2016-11-26T01:43:05.739Z,31.9
2016-11-26T01:44:05.828Z,31.9
2016-11-26T01:45:05.975Z,31.9
2016-11-26T01:46:06.033Z,31.9
2016-11-26T01:47:05.956Z,31.9
2016-11-26T01:48:05.990Z,31.9
2016-11-26T01:49:08.520Z,31.9
2016-11-26T01:50:06.123Z,31.9
2016-11-26T01:51:08.671Z,31.9
2016-11-26T01:52:06.333Z,31.9
2016-11-26T01:53:08.755Z,31.9
2016-11-26T01:54:06.287Z,31.9
2016-11-26T01:55:08.852Z,31.9
2016-11-26T01:56:06.410Z,31.9
2016-11-26T01:57:06.527Z,31.9
2016-11-26T01:58:06.471Z,31.9
2016-11-26T01:59:06.651Z,31.9
2016-11-26T02:00:06.637Z,31.9
2016-11-26T02:01:09.121Z,31.9
2016-11-26T02:02:06.764Z,31.9
2016-11-26T02:03:09.105Z,31.9
2016-11-26T02:04:09.110Z,31.9
2016-11-26T02:05:09.311Z,31.9
2016-11-26T02:06:09.279Z,31.9
2016-11-26T02:07:09.317Z,31.9
2016-11-26T02:08:06.949Z,31.9
2016-11-26T02:09:06.947Z,31.9
2016-11-26T02:10:06.995Z,31.9
2016-11-26T02:11:09.429Z,31.9
2016-11-26T02:12:07.113Z,31.9
2016-11-26T02:13:09.476Z,31.9
2016-11-26T02:14:09.633Z,31.9
2016-11-26T02:15:07.268Z,31.9
2016-11-26T02:16:09.761Z,31.9
2016-11-26T02:17:07.309Z,31.9
2016-11-26T02:18:09.762Z,31.9
2016-11-26T02:19:09.774Z,31.9
2016-11-26T02:20:09.705Z,31.9
2016-11-26T02:21:07.406Z,31.9
2016-11-26T02:22:09.933Z,31.9
2016-11-26T02:23:09.996Z,31.9
2016-11-26T02:24:09.942Z,31.9
2016-11-26T02:25:10.131Z,31.9
2016-11-26T02:26:10.052Z,31.9
2016-11-26T02:27:07.692Z,31.9
2016-11-26T02:28:07.876Z,31.9
2016-11-26T02:29:07.813Z,31.9
2016-11-26T02:30:10.414Z,31.9
2016-11-26T02:31:08.051Z,31.9
2016-11-26T02:32:08.031Z,31.9
2016-11-26T02:33:10.596Z,31.9
2016-11-26T02:34:08.179Z,31.9
2016-11-26T02:35:10.681Z,31.9
2016-11-26T02:36:08.483Z,31.9
2016-11-26T02:37:08.510Z,31.8
2016-11-26T02:38:08.488Z,31.9
2016-11-26T02:39:10.971Z,31.9
2016-11-26T02:40:08.621Z,31.9
2016-11-26T02:41:11.177Z,31.8
2016-11-26T02:42:11.115Z,31.9
2016-11-26T02:43:11.915Z,31.8
2016-11-26T02:44:11.197Z,31.8
2016-11-26T02:45:11.340Z,31.9
2016-11-26T02:46:11.304Z,31.9
2016-11-26T02:47:09.102Z,31.9
2016-11-26T02:48:11.490Z,31.9
2016-11-26T02:49:09.008Z,31.9
2016-11-26T02:50:09.176Z,31.9
2016-11-26T02:51:09.183Z,31.9
2016-11-26T02:52:09.125Z,31.9
2016-11-26T02:53:11.651Z,31.9
2016-11-26T02:54:09.156Z,31.9
2016-11-26T02:55:11.679Z,31.9
2016-11-26T02:56:11.618Z,31.9
2016-11-26T02:57:11.680Z,31.9
2016-11-26T02:58:11.794Z,31.9
2016-11-26T02:59:09.474Z,31.8
2016-11-26T03:00:09.411Z,31.8
2016-11-26T03:01:09.528Z,31.8
2016-11-26T03:02:11.867Z,31.8
2016-11-26T03:03:11.990Z,31.8
2016-11-26T03:04:09.502Z,31.8
2016-11-26T03:05:12.015Z,31.8
2016-11-26T03:06:12.093Z,31.8
2016-11-26T03:07:12.189Z,31.8
2016-11-26T03:08:12.177Z,31.8
2016-11-26T03:09:12.204Z,31.8
2016-11-26T03:10:12.309Z,31.8
2016-11-26T03:11:09.971Z,31.8
2016-11-26T03:12:12.553Z,31.8
2016-11-26T03:13:10.216Z,31.8
2016-11-26T03:14:10.195Z,31.8
2016-11-26T03:15:10.244Z,31.8
2016-11-26T03:16:12.751Z,31.8
2016-11-26T03:17:10.280Z,31.8
2016-11-26T03:18:10.372Z,31.8
2016-11-26T03:19:10.316Z,31.8
2016-11-26T03:20:12.777Z,31.8
2016-11-26T03:21:12.857Z,31.8
2016-11-26T03:22:10.524Z,31.8
2016-11-26T03:23:12.903Z,31.8
2016-11-26T03:24:10.564Z,31.8
2016-11-26T03:25:13.031Z,31.8
2016-11-26T03:26:10.776Z,31.8
2016-11-26T03:27:13.312Z,31.8
2016-11-26T03:28:13.324Z,31.8
2016-11-26T03:29:11.009Z,31.8
2016-11-26T03:30:13.397Z,31.8
2016-11-26T03:31:13.380Z,31.8
2016-11-26T03:32:11.060Z,31.8
2016-11-26T03:33:11.120Z,31.8
2016-11-26T03:34:13.483Z,31.8
2016-11-26T03:35:13.482Z,31.8
2016-11-26T03:36:13.555Z,31.8
2016-11-26T03:37:11.238Z,31.8
2016-11-26T03:38:13.633Z,31.8
2016-11-26T03:39:11.420Z,31.8
2016-11-26T03:40:11.487Z,31.8
2016-11-26T03:41:11.545Z,31.8
2016-11-26T03:42:13.895Z,31.8
2016-11-26T03:43:11.569Z,31.8
2016-11-26T03:44:11.491Z,31.8
2016-11-26T03:45:13.987Z,31.8
2016-11-26T03:46:13.997Z,31.8
2016-11-26T03:47:14.161Z,31.8
2016-11-26T03:48:14.116Z,31.8
2016-11-26T03:49:14.205Z,31.7
2016-11-26T03:50:12.686Z,31.8
2016-11-26T03:51:14.457Z,31.8
2016-11-26T03:52:11.991Z,31.8
2016-11-26T03:53:12.113Z,31.7
2016-11-26T03:54:12.144Z,31.8
2016-11-26T03:55:14.562Z,31.7
2016-11-26T03:56:14.619Z,31.7
2016-11-26T03:57:12.170Z,31.7
2016-11-26T03:58:14.570Z,31.7
2016-11-26T03:59:14.658Z,31.7
2016-11-26T04:00:12.201Z,31.7
2016-11-26T04:01:14.607Z,31.7
2016-11-26T04:02:12.396Z,31.7
2016-11-26T04:03:14.874Z,31.7
2016-11-26T04:04:12.398Z,31.7
2016-11-26T04:05:12.470Z,31.7
2016-11-26T04:06:14.946Z,31.7
2016-11-26T04:07:12.516Z,31.7
2016-11-26T04:08:12.581Z,31.7
2016-11-26T04:09:15.050Z,31.7
2016-11-26T04:10:12.672Z,31.7
2016-11-26T04:11:12.735Z,31.7
2016-11-26T04:12:15.803Z,31.7
2016-11-26T04:13:12.857Z,31.7
2016-11-26T04:14:15.348Z,31.7
2016-11-26T04:15:15.437Z,31.7
2016-11-26T04:16:12.976Z,31.7
2016-11-26T04:17:13.114Z,31.7
2016-11-26T04:18:13.112Z,31.7
2016-11-26T04:19:13.086Z,31.7
2016-11-26T04:20:13.142Z,31.7
2016-11-26T04:21:15.690Z,31.7
2016-11-26T04:22:15.676Z,31.7
2016-11-26T04:23:13.425Z,31.7
2016-11-26T04:24:15.793Z,31.7
2016-11-26T04:25:13.393Z,31.7
2016-11-26T04:26:13.535Z,31.7
2016-11-26T04:27:13.445Z,31.7
2016-11-26T04:28:13.588Z,31.7
2016-11-26T04:29:13.522Z,31.7
2016-11-26T04:30:13.659Z,31.7
2016-11-26T04:31:13.597Z,31.7
2016-11-26T04:32:16.197Z,31.7
2016-11-26T04:33:16.284Z,31.7
2016-11-26T04:34:13.851Z,31.7
2016-11-26T04:35:16.436Z,31.7
2016-11-26T04:36:14.007Z,31.7
2016-11-26T04:37:14.064Z,31.7
2016-11-26T04:38:14.204Z,31.7
2016-11-26T04:39:16.610Z,31.7
2016-11-26T04:40:16.565Z,31.7
2016-11-26T04:41:16.739Z,31.7
2016-11-26T04:42:16.739Z,31.7
2016-11-26T04:43:16.852Z,31.7
2016-11-26T04:44:14.399Z,31.7
2016-11-26T04:45:16.855Z,31.7
2016-11-26T04:46:16.923Z,31.7
2016-11-26T04:47:17.055Z,31.7
2016-11-26T04:48:16.941Z,31.7
2016-11-26T04:49:17.119Z,31.7
2016-11-26T04:50:17.158Z,31.7
2016-11-26T04:51:17.195Z,31.7
2016-11-26T04:52:17.188Z,31.7
2016-11-26T04:53:14.853Z,31.7
2016-11-26T04:54:14.878Z,31.7
2016-11-26T04:55:14.998Z,31.7
2016-11-26T04:56:17.370Z,31.7
2016-11-26T04:57:15.025Z,31.7
2016-11-26T04:58:17.385Z,31.7
2016-11-26T04:59:15.091Z,31.6
2016-11-26T05:00:15.050Z,31.6
2016-11-26T05:01:17.526Z,31.7
2016-11-26T05:02:17.693Z,31.6
2016-11-26T05:03:15.344Z,31.7
2016-11-26T05:04:15.361Z,31.6
2016-11-26T05:05:15.379Z,31.6
2016-11-26T05:06:17.722Z,31.6
2016-11-26T05:07:17.813Z,31.6
2016-11-26T05:08:17.836Z,31.6
2016-11-26T05:09:15.532Z,31.6
2016-11-26T05:10:17.954Z,31.6
2016-11-26T05:11:15.476Z,31.6
2016-11-26T05:12:15.580Z,31.6
2016-11-26T05:13:18.083Z,31.6
2016-11-26T05:14:15.681Z,31.6
2016-11-26T05:15:15.811Z,31.6
2016-11-26T05:16:18.181Z,31.6
2016-11-26T05:17:15.931Z,31.6
2016-11-26T05:18:18.328Z,31.6
2016-11-26T05:19:18.345Z,31.6
2016-11-26T05:20:15.922Z,31.6
2016-11-26T05:21:16.012Z,31.6
2016-11-26T05:22:18.481Z,31.6
2016-11-26T05:23:18.417Z,31.6
2016-11-26T05:24:16.174Z,31.6
2016-11-26T05:25:18.605Z,31.6
2016-11-26T05:26:16.217Z,31.6
2016-11-26T05:27:16.202Z,31.6
2016-11-26T05:28:16.127Z,31.6
2016-11-26T05:29:16.163Z,31.6
2016-11-26T05:30:19.017Z,31.6
2016-11-26T05:31:18.774Z,31.6
2016-11-26T05:32:18.727Z,31.6
2016-11-26T05:33:18.792Z,31.6
2016-11-26T05:34:16.435Z,31.6
2016-11-26T05:35:19.028Z,31.6
2016-11-26T05:36:16.699Z,31.6
2016-11-26T05:37:19.110Z,31.6
2016-11-26T05:38:19.209Z,31.6
2016-11-26T05:39:19.196Z,31.6
2016-11-26T05:40:19.200Z,31.6
2016-11-26T05:41:16.993Z,31.5
2016-11-26T05:42:19.999Z,31.6
2016-11-26T05:43:19.444Z,31.5
2016-11-26T05:44:16.953Z,31.6
2016-11-26T05:45:17.005Z,31.6
2016-11-26T05:46:19.514Z,31.6
2016-11-26T05:47:19.575Z,31.6
2016-11-26T05:48:19.679Z,31.6
2016-11-26T05:49:19.647Z,31.6
2016-11-26T05:50:19.745Z,31.6
2016-11-26T05:51:17.373Z,31.6
2016-11-26T05:52:17.551Z,31.6
2016-11-26T05:53:20.053Z,31.5
2016-11-26T05:54:20.090Z,31.5
2016-11-26T05:55:20.788Z,31.5
2016-11-26T05:56:20.085Z,31.5
2016-11-26T05:57:20.142Z,31.6
2016-11-26T05:58:17.865Z,31.6
2016-11-26T05:59:20.281Z,31.6
2016-11-26T06:00:20.327Z,31.6
2016-11-26T06:01:20.435Z,31.6
2016-11-26T06:02:20.401Z,31.6
2016-11-26T06:03:20.583Z,31.6
2016-11-26T06:04:18.116Z,31.6
2016-11-26T06:05:20.546Z,31.6
2016-11-26T06:06:20.646Z,31.6
2016-11-26T06:07:20.721Z,31.6
2016-11-26T06:08:20.666Z,31.6
2016-11-26T06:09:20.830Z,31.6
2016-11-26T06:10:18.430Z,31.6
2016-11-26T06:11:18.526Z,31.6
2016-11-26T06:12:20.875Z,31.5
2016-11-26T06:13:20.950Z,31.5
2016-11-26T06:14:21.097Z,31.5
2016-11-26T06:15:18.708Z,31.5
2016-11-26T06:16:18.640Z,31.5
2016-11-26T06:17:18.670Z,31.5
2016-11-26T06:18:21.230Z,31.5
2016-11-26T06:19:21.258Z,31.5
2016-11-26T06:20:18.894Z,31.5
2016-11-26T06:21:18.834Z,31.5
2016-11-26T06:22:21.389Z,31.5
2016-11-26T06:23:21.450Z,31.5
2016-11-26T06:24:19.072Z,31.5
2016-11-26T06:25:21.482Z,31.5
2016-11-26T06:26:19.014Z,31.5
2016-11-26T06:27:19.060Z,31.5
2016-11-26T06:28:21.507Z,31.5
2016-11-26T06:29:19.199Z,31.5
2016-11-26T06:30:21.540Z,31.5
2016-11-26T06:31:19.293Z,31.5
2016-11-26T06:32:21.634Z,31.5
2016-11-26T06:33:21.718Z,31.5
2016-11-26T06:34:21.749Z,31.5
2016-11-26T06:35:21.728Z,31.5
2016-11-26T06:36:21.786Z,31.5
2016-11-26T06:37:19.517Z,31.5
2016-11-26T06:38:21.952Z,31.5
2016-11-26T06:39:19.575Z,31.5
2016-11-26T06:40:21.934Z,31.5
2016-11-26T06:41:22.156Z,31.5
2016-11-26T06:42:22.181Z,31.5
2016-11-26T06:43:19.800Z,31.5
2016-11-26T06:44:22.259Z,31.5
2016-11-26T06:45:22.340Z,31.5
2016-11-26T06:46:19.973Z,31.5
2016-11-26T06:47:19.925Z,31.5
2016-11-26T06:48:22.394Z,31.5
2016-11-26T06:49:20.067Z,31.5
2016-11-26T06:50:22.620Z,31.5
2016-11-26T06:51:22.651Z,31.5
2016-11-26T06:52:22.706Z,31.5
2016-11-26T06:53:22.650Z,31.5
2016-11-26T06:54:20.398Z,31.5
2016-11-26T06:55:22.730Z,31.5
2016-11-26T06:56:20.416Z,31.4
2016-11-26T06:57:20.561Z,31.5
2016-11-26T06:58:20.581Z,31.5
2016-11-26T06:59:20.720Z,31.5
2016-11-26T07:00:20.764Z,31.5
2016-11-26T07:01:20.664Z,31.5
2016-11-26T07:02:20.816Z,31.5
2016-11-26T07:03:20.755Z,31.5
2016-11-26T07:04:23.334Z,31.5
2016-11-26T07:05:23.364Z,31.5
2016-11-26T07:06:20.922Z,31.5
2016-11-26T07:07:23.387Z,31.4
2016-11-26T07:08:23.556Z,31.5
2016-11-26T07:09:23.521Z,31.5
2016-11-26T07:10:23.673Z,31.4
2016-11-26T07:11:24.268Z,31.5
2016-11-26T07:12:21.338Z,31.4
2016-11-26T07:13:21.412Z,31.4
2016-11-26T07:14:21.462Z,31.4
2016-11-26T07:15:23.835Z,31.4
2016-11-26T07:16:23.978Z,31.4
2016-11-26T07:17:23.951Z,31.4
2016-11-26T07:18:24.028Z,31.4
2016-11-26T07:19:21.700Z,31.4
2016-11-26T07:20:21.729Z,31.4
2016-11-26T07:21:21.723Z,31.4
2016-11-26T07:22:24.187Z,31.4
2016-11-26T07:23:24.345Z,31.4
2016-11-26T07:24:21.945Z,31.4
2016-11-26T07:25:22.068Z,31.4
2016-11-26T07:26:24.531Z,31.4
2016-11-26T07:27:26.814Z,31.4
2016-11-26T07:28:24.672Z,31.4
2016-11-26T07:29:24.707Z,31.4
2016-11-26T07:30:24.772Z,31.4
2016-11-26T07:31:24.814Z,31.4
2016-11-26T07:32:24.850Z,31.4
2016-11-26T07:33:22.379Z,31.4
2016-11-26T07:34:24.863Z,31.4
2016-11-26T07:35:22.434Z,31.4
2016-11-26T07:36:22.564Z,31.4
2016-11-26T07:37:25.037Z,31.4
2016-11-26T07:38:22.708Z,31.4
2016-11-26T07:39:22.708Z,31.4
2016-11-26T07:40:22.830Z,31.4
2016-11-26T07:41:22.820Z,31.4
2016-11-26T07:42:25.185Z,31.4
2016-11-26T07:43:22.951Z,31.4
2016-11-26T07:44:22.880Z,31.4
2016-11-26T07:45:23.033Z,31.4
2016-11-26T07:46:25.452Z,31.4
2016-11-26T07:47:22.999Z,31.3
2016-11-26T07:48:24.391Z,31.3
2016-11-26T07:49:23.109Z,31.3
2016-11-26T07:50:23.181Z,31.3
2016-11-26T07:51:25.643Z,31.3
2016-11-26T07:52:23.246Z,31.4
2016-11-26T07:53:23.218Z,31.3
2016-11-26T07:54:23.254Z,31.3
2016-11-26T07:55:25.715Z,31.3
2016-11-26T07:56:23.381Z,31.3
2016-11-26T07:57:25.893Z,31.3
2016-11-26T07:58:25.928Z,31.3
2016-11-26T07:59:25.895Z,31.3
2016-11-26T08:00:23.530Z,31.3
2016-11-26T08:01:23.543Z,31.3
2016-11-26T08:02:23.611Z,31.3
2016-11-26T08:03:23.747Z,31.3
2016-11-26T08:04:23.767Z,31.3
2016-11-26T08:05:26.286Z,31.3
2016-11-26T08:06:26.202Z,31.3
2016-11-26T08:07:26.347Z,31.3
2016-11-26T08:08:26.354Z,31.3
2016-11-26T08:09:26.332Z,31.3
2016-11-26T08:10:26.474Z,31.3
2016-11-26T08:11:26.477Z,31.3
2016-11-26T08:12:26.546Z,31.3
2016-11-26T08:13:24.059Z,31.3
2016-11-26T08:14:26.602Z,31.3
2016-11-26T08:15:26.672Z,31.3
2016-11-26T08:16:26.719Z,31.3
2016-11-26T08:17:24.346Z,31.3
2016-11-26T08:18:24.372Z,31.3
2016-11-26T08:19:26.688Z,31.3
2016-11-26T08:20:24.322Z,31.3
2016-11-26T08:21:24.435Z,31.3
2016-11-26T08:22:26.789Z,31.3
2016-11-26T08:23:24.321Z,31.3
2016-11-26T08:24:26.953Z,31.3
2016-11-26T08:25:24.521Z,31.2
2016-11-26T08:26:24.547Z,31.2
2016-11-26T08:27:27.107Z,31.2
2016-11-26T08:28:27.161Z,31.2
2016-11-26T08:29:24.900Z,31.2
2016-11-26T08:30:24.797Z,31.2
2016-11-26T08:31:24.839Z,31.2
2016-11-26T08:32:25.705Z,31.2
2016-11-26T08:33:27.481Z,31.2
2016-11-26T08:34:25.032Z,31.2
2016-11-26T08:35:27.587Z,31.2
2016-11-26T08:36:27.526Z,31.2
2016-11-26T08:37:25.269Z,31.2
2016-11-26T08:38:27.764Z,31.2
2016-11-26T08:39:27.821Z,31.2
2016-11-26T08:40:27.861Z,31.2
2016-11-26T08:41:27.827Z,31.2
2016-11-26T08:42:27.929Z,31.2
2016-11-26T08:43:27.988Z,31.2
2016-11-26T08:44:28.070Z,31.2
2016-11-26T08:45:28.086Z,31.2
2016-11-26T08:46:25.748Z,31.2
2016-11-26T08:47:25.911Z,31.2
2016-11-26T08:48:28.312Z,31.2
2016-11-26T08:49:25.911Z,31.2
2016-11-26T08:50:28.433Z,31.2
2016-11-26T08:51:26.027Z,31.2
2016-11-26T08:52:26.116Z,31.2
2016-11-26T08:53:26.157Z,31.2
2016-11-26T08:54:26.145Z,31.2
2016-11-26T08:55:26.213Z,31.2
2016-11-26T08:56:28.644Z,31.1
2016-11-26T08:57:28.741Z,31.1
2016-11-26T08:58:28.688Z,31.1
2016-11-26T08:59:26.435Z,31.1
2016-11-26T09:00:26.510Z,31.1
2016-11-26T09:01:28.827Z,31
2016-11-26T09:02:28.986Z,31
2016-11-26T09:03:26.545Z,31
2016-11-26T09:04:26.629Z,31
2016-11-26T09:05:29.035Z,31
2016-11-26T09:06:28.987Z,30.9
2016-11-26T09:07:29.082Z,30.9
2016-11-26T09:08:26.613Z,30.9
2016-11-26T09:09:26.612Z,30.9
2016-11-26T09:10:26.739Z,30.8
2016-11-26T09:11:26.642Z,30.8
2016-11-26T09:12:27.905Z,30.8
2016-11-26T09:13:26.831Z,30.7
2016-11-26T09:14:29.242Z,30.7
2016-11-26T09:15:26.827Z,30.7
2016-11-26T09:16:29.325Z,30.6
2016-11-26T09:17:26.943Z,30.6
2016-11-26T09:18:27.046Z,30.6
2016-11-26T09:19:27.061Z,30.6
2016-11-26T09:20:27.110Z,30.6
2016-11-26T09:21:27.251Z,30.5
2016-11-26T09:22:29.661Z,30.5
2016-11-26T09:23:29.719Z,30.5
2016-11-26T09:24:29.816Z,30.5
2016-11-26T09:25:27.956Z,30.5
2016-11-26T09:26:27.463Z,30.5
2016-11-26T09:27:29.941Z,30.5
2016-11-26T09:28:27.541Z,30.5
2016-11-26T09:29:30.075Z,30.5
2016-11-26T09:30:27.670Z,30.5
2016-11-26T09:31:27.703Z,30.5
2016-11-26T09:32:30.140Z,30.5
2016-11-26T09:33:30.293Z,30.4
2016-11-26T09:34:27.869Z,30.4
2016-11-26T09:35:27.923Z,30.4
2016-11-26T09:36:28.118Z,30.4
2016-11-26T09:37:28.746Z,30.4
2016-11-26T09:38:28.065Z,30.4
2016-11-26T09:39:30.580Z,30.4
2016-11-26T09:40:28.207Z,30.3
2016-11-26T09:41:28.205Z,30.3
2016-11-26T09:42:28.358Z,30.3
2016-11-26T09:43:30.900Z,30.3
2016-11-26T09:44:28.461Z,30.3
2016-11-26T09:45:30.964Z,30.3
2016-11-26T09:46:28.566Z,30.3
2016-11-26T09:47:28.579Z,30.3
2016-11-26T09:48:31.020Z,30.3
2016-11-26T09:49:31.031Z,30.3
2016-11-26T09:50:29.230Z,30.2
2016-11-26T09:51:31.288Z,30.3
2016-11-26T09:52:28.848Z,30.3
2016-11-26T09:53:31.259Z,30.3
2016-11-26T09:54:29.545Z,30.2
2016-11-26T09:55:28.929Z,30.2
2016-11-26T09:56:31.464Z,30.2
2016-11-26T09:57:31.401Z,30.2
2016-11-26T09:58:29.072Z,30.2
2016-11-26T09:59:31.518Z,30.2
2016-11-26T10:00:29.831Z,30.2
2016-11-26T10:01:29.232Z,30.2
2016-11-26T10:02:31.653Z,30.1
2016-11-26T10:03:29.372Z,30.1
2016-11-26T10:04:31.818Z,30.1
2016-11-26T10:05:31.748Z,30.1
2016-11-26T10:06:31.911Z,30
2016-11-26T10:07:30.071Z,30
2016-11-26T10:08:29.609Z,30
2016-11-26T10:09:32.051Z,30
2016-11-26T10:10:32.117Z,29.9
2016-11-26T10:11:32.199Z,29.9
2016-11-26T10:12:32.199Z,29.9
2016-11-26T10:13:32.191Z,29.9
2016-11-26T10:14:29.837Z,29.9
2016-11-26T10:15:29.966Z,29.9
2016-11-26T10:16:29.948Z,29.8
2016-11-26T10:17:33.203Z,29.8
2016-11-26T10:18:32.495Z,29.8
2016-11-26T10:19:30.132Z,29.8
2016-11-26T10:20:32.586Z,29.7
2016-11-26T10:21:32.556Z,29.7
2016-11-26T10:22:30.885Z,29.7
2016-11-26T10:23:30.314Z,29.7
2016-11-26T10:24:32.830Z,29.7
2016-11-26T10:25:30.417Z,29.7
2016-11-26T10:26:32.931Z,29.7
2016-11-26T10:27:33.043Z,29.6
2016-11-26T10:28:33.107Z,29.5
2016-11-26T10:29:30.805Z,29.5
2016-11-26T10:30:33.277Z,29.5
2016-11-26T10:31:33.278Z,29.5
2016-11-26T10:32:33.275Z,29.4
2016-11-26T10:33:33.350Z,29.5
2016-11-26T10:34:33.385Z,29.5
2016-11-26T10:35:33.447Z,29.5
2016-11-26T10:36:33.469Z,29.6
2016-11-26T10:37:31.147Z,29.6
2016-11-26T10:38:31.085Z,29.5
2016-11-26T10:39:31.253Z,29.4
2016-11-26T10:40:31.211Z,29.3
2016-11-26T10:41:33.802Z,29.2
2016-11-26T10:42:33.844Z,29.1
2016-11-26T10:43:31.401Z,29
2016-11-26T10:44:33.761Z,28.9
2016-11-26T10:45:31.527Z,28.8
2016-11-26T10:46:31.557Z,28.7
2016-11-26T10:47:33.936Z,28.6
2016-11-26T10:48:34.063Z,28.5
2016-11-26T10:49:31.636Z,28.3
2016-11-26T10:50:34.170Z,28.2
2016-11-26T10:51:31.648Z,28.1
2016-11-26T10:52:34.223Z,28
2016-11-26T10:53:31.734Z,27.8
2016-11-26T10:54:31.835Z,27.7
2016-11-26T10:55:34.354Z,27.6
2016-11-26T10:56:34.400Z,27.5
2016-11-26T10:57:32.451Z,27.4
2016-11-26T10:58:35.742Z,27.3
2016-11-26T10:59:34.508Z,27.3
2016-11-26T11:00:32.283Z,27.2
2016-11-26T11:01:34.622Z,27
2016-11-26T11:02:32.330Z,27
2016-11-26T11:03:32.360Z,27.1
2016-11-26T11:04:34.677Z,27.3
2016-11-26T11:05:32.415Z,27.5
2016-11-26T11:06:34.826Z,27.6
2016-11-26T11:07:32.528Z,27.7
2016-11-26T11:08:32.556Z,27.8
2016-11-26T11:09:32.541Z,28
2016-11-26T11:10:32.632Z,28.1
2016-11-26T11:11:35.182Z,28.1
2016-11-26T11:12:35.149Z,28.2
2016-11-26T11:13:32.937Z,28.3
2016-11-26T11:14:35.364Z,28.4
2016-11-26T11:15:35.426Z,28.5
2016-11-26T11:16:33.044Z,28.5
2016-11-26T11:17:33.031Z,28.6
2016-11-26T11:18:33.047Z,28.6
2016-11-26T11:19:35.589Z,28.7
2016-11-26T11:20:35.534Z,28.7
2016-11-26T11:21:33.104Z,28.7
2016-11-26T11:22:33.114Z,28.8
2016-11-26T11:23:33.148Z,28.8
2016-11-26T11:24:33.210Z,28.9
2016-11-26T11:25:33.361Z,28.9
2016-11-26T11:26:33.438Z,28.9
2016-11-26T11:27:35.934Z,28.9
2016-11-26T11:28:35.927Z,29
2016-11-26T11:29:33.529Z,29
2016-11-26T11:30:36.056Z,29
2016-11-26T11:31:36.078Z,29
2016-11-26T11:32:33.681Z,29
2016-11-26T11:33:36.273Z,29.1
2016-11-26T11:34:33.793Z,29.1
2016-11-26T11:35:36.251Z,29.1
2016-11-26T11:36:33.982Z,29.1
2016-11-26T11:37:36.391Z,29.2
2016-11-26T11:38:34.106Z,29.2
2016-11-26T11:39:34.080Z,29.2
2016-11-26T11:40:36.581Z,29.2
2016-11-26T11:41:34.208Z,29.3
2016-11-26T11:42:34.303Z,29.3
2016-11-26T11:43:34.400Z,29.3
2016-11-26T11:44:34.313Z,29.3
2016-11-26T11:45:34.413Z,29.3
2016-11-26T11:46:34.401Z,29.3
2016-11-26T11:47:34.467Z,29.3
2016-11-26T11:48:34.504Z,29.3
2016-11-26T11:49:34.563Z,29.3
2016-11-26T11:50:34.672Z,29.3
2016-11-26T11:51:34.787Z,29.3
2016-11-26T11:52:34.781Z,29.3
2016-11-26T11:53:34.836Z,29.3
2016-11-26T11:54:34.918Z,29.3
2016-11-26T11:55:37.305Z,29.3
2016-11-26T11:56:37.355Z,29.3
2016-11-26T11:57:37.519Z,29.3
2016-11-26T11:58:35.155Z,29.3
2016-11-26T11:59:35.117Z,29.3
2016-11-26T12:00:37.662Z,29.3
2016-11-26T12:01:35.180Z,29.3
2016-11-26T12:02:37.695Z,29.3
2016-11-26T12:03:37.703Z,29.3
2016-11-26T12:04:37.828Z,29.3
2016-11-26T12:05:35.404Z,29.3
2016-11-26T12:06:37.900Z,29.3
2016-11-26T12:07:37.929Z,29.3
2016-11-26T12:08:35.653Z,29.3
2016-11-26T12:09:35.742Z,29.3
2016-11-26T12:10:38.158Z,29.3
2016-11-26T12:11:35.747Z,29.3
2016-11-26T12:12:38.265Z,29.3
2016-11-26T12:13:35.756Z,29.3
2016-11-26T12:14:38.181Z,29.3
2016-11-26T12:15:35.874Z,29.3
2016-11-26T12:16:38.346Z,29.3
2016-11-26T12:17:35.907Z,29.3
2016-11-26T12:18:36.103Z,29.3
2016-11-26T12:19:36.007Z,29.3
2016-11-26T12:20:36.092Z,29.3
2016-11-26T12:21:38.568Z,29.3
2016-11-26T12:22:39.121Z,29.3
2016-11-26T12:23:36.332Z,29.3
2016-11-26T12:24:36.417Z,29.3
2016-11-26T12:25:40.071Z,29.3
2016-11-26T12:26:38.863Z,29.3
2016-11-26T12:27:38.853Z,29.3
2016-11-26T12:28:38.977Z,29.3
2016-11-26T12:29:38.936Z,29.4
2016-11-26T12:30:36.633Z,29.4
2016-11-26T12:31:39.104Z,29.4
2016-11-26T12:32:36.695Z,29.4
2016-11-26T12:33:39.211Z,29.4
2016-11-26T12:34:36.742Z,29.4
2016-11-26T12:35:39.192Z,29.4
2016-11-26T12:36:39.306Z,29.4
2016-11-26T12:37:39.395Z,29.4
2016-11-26T12:38:39.485Z,29.4
2016-11-26T12:39:37.091Z,29.4
2016-11-26T12:40:37.089Z,29.4
2016-11-26T12:41:37.165Z,29.4
2016-11-26T12:42:39.563Z,29.4
2016-11-26T12:43:39.588Z,29.4
2016-11-26T12:44:37.299Z,29.4
2016-11-26T12:45:39.721Z,29.4
2016-11-26T12:46:37.445Z,29.4
2016-11-26T12:47:39.925Z,29.5
2016-11-26T12:48:39.839Z,29.5
2016-11-26T12:49:37.427Z,29.5
2016-11-26T12:50:37.541Z,29.5
2016-11-26T12:51:40.049Z,29.5
2016-11-26T12:52:40.057Z,29.5
2016-11-26T12:53:40.208Z,29.5
2016-11-26T12:54:37.880Z,29.5
2016-11-26T12:55:37.850Z,29.5
2016-11-26T12:56:37.897Z,29.6
2016-11-26T12:57:38.592Z,29.6
2016-11-26T12:58:38.138Z,29.6
2016-11-26T12:59:38.185Z,29.6
2016-11-26T13:00:40.648Z,29.6
2016-11-26T13:01:42.434Z,29.6
2016-11-26T13:02:41.371Z,29.6
2016-11-26T13:03:39.453Z,29.7
2016-11-26T13:04:38.485Z,29.7
2016-11-26T13:05:38.579Z,29.7
2016-11-26T13:06:40.992Z,29.7
2016-11-26T13:07:41.062Z,29.7
2016-11-26T13:08:38.538Z,29.7
2016-11-26T13:09:41.184Z,29.7
2016-11-26T13:10:41.079Z,29.8
2016-11-26T13:11:38.686Z,29.8
2016-11-26T13:12:41.210Z,29.8
2016-11-26T13:13:41.188Z,29.8
2016-11-26T13:14:41.213Z,29.8
2016-11-26T13:15:41.344Z,29.8
2016-11-26T13:16:39.027Z,29.8
2016-11-26T13:17:39.076Z,29.8
2016-11-26T13:18:39.058Z,29.8
2016-11-26T13:19:39.100Z,29.8
2016-11-26T13:20:41.660Z,29.8
2016-11-26T13:21:41.739Z,29.9
2016-11-26T13:22:41.716Z,29.9
2016-11-26T13:23:41.812Z,29.9
2016-11-26T13:24:39.405Z,29.9